sensor_id;sensor_type;location;lat;lon;timestamp;pressure;altitude;pressure_sealevel;temperature;humidity
54556;BME280;57291;37.520;15.106;2023-02-18T00:00:31;102795.06;;;10.53;82.94
54556;BME280;57291;37.520;15.106;2023-02-18T00:02:58;102795.47;;;10.45;83.05
54556;BME280;57291;37.520;15.106;2023-02-18T00:05:25;102799.75;;;10.41;83.58
54556;BME280;57291;37.520;15.106;2023-02-18T00:07:54;102800.22;;;10.38;83.69
54556;BME280;57291;37.520;15.106;2023-02-18T00:10:21;102801.19;;;10.32;83.83
54556;BME280;57291;37.520;15.106;2023-02-18T00:12:48;102796.50;;;10.27;83.93
54556;BME280;57291;37.520;15.106;2023-02-18T00:15:16;102794.44;;;10.23;84.12
54556;BME280;57291;37.520;15.106;2023-02-18T00:17:43;102797.09;;;10.18;84.19
54556;BME280;57291;37.520;15.106;2023-02-18T00:20:10;102800.28;;;10.15;84.47
54556;BME280;57291;37.520;15.106;2023-02-18T00:22:37;102791.47;;;10.07;84.70
54556;BME280;57291;37.520;15.106;2023-02-18T00:25:04;102799.81;;;10.06;84.71
54556;BME280;57291;37.520;15.106;2023-02-18T00:27:32;102795.13;;;10.01;85.03
54556;BME280;57291;37.520;15.106;2023-02-18T00:30:02;102788.88;;;10.01;85.22
54556;BME280;57291;37.520;15.106;2023-02-18T00:32:33;102785.09;;;10.02;85.18
54556;BME280;57291;37.520;15.106;2023-02-18T00:35:01;102792.41;;;10.01;85.32
54556;BME280;57291;37.520;15.106;2023-02-18T00:37:28;102787.47;;;9.98;85.39
54556;BME280;57291;37.520;15.106;2023-02-18T00:39:55;102793.97;;;9.97;85.35
54556;BME280;57291;37.520;15.106;2023-02-18T00:42:22;102782.75;;;9.94;85.29
54556;BME280;57291;37.520;15.106;2023-02-18T00:44:49;102788.69;;;9.91;85.32
54556;BME280;57291;37.520;15.106;2023-02-18T00:47:17;102791.53;;;9.84;85.32
54556;BME280;57291;37.520;15.106;2023-02-18T00:49:44;102796.00;;;9.78;85.40
54556;BME280;57291;37.520;15.106;2023-02-18T00:52:11;102794.84;;;9.74;85.54
54556;BME280;57291;37.520;15.106;2023-02-18T00:54:39;102787.41;;;9.70;85.51
54556;BME280;57291;37.520;15.106;2023-02-18T00:57:06;102778.56;;;9.62;85.72
54556;BME280;57291;37.520;15.106;2023-02-18T00:59:33;102780.69;;;9.60;85.82
54556;BME280;57291;37.520;15.106;2023-02-18T01:02:01;102781.75;;;9.59;86.04
54556;BME280;57291;37.520;15.106;2023-02-18T01:04:28;102781.16;;;9.57;86.02
54556;BME280;57291;37.520;15.106;2023-02-18T01:06:55;102774.09;;;9.56;85.93
54556;BME280;57291;37.520;15.106;2023-02-18T01:09:22;102770.81;;;9.54;85.80
54556;BME280;57291;37.520;15.106;2023-02-18T01:11:51;102766.06;;;9.50;85.61
54556;BME280;57291;37.520;15.106;2023-02-18T01:14:18;102762.78;;;9.48;85.58
54556;BME280;57291;37.520;15.106;2023-02-18T01:16:45;102769.72;;;9.44;85.77
54556;BME280;57291;37.520;15.106;2023-02-18T01:19:12;102764.78;;;9.40;85.74
54556;BME280;57291;37.520;15.106;2023-02-18T01:21:39;102762.31;;;9.39;85.76
54556;BME280;57291;37.520;15.106;2023-02-18T01:24:06;102764.22;;;9.38;85.85
54556;BME280;57291;37.520;15.106;2023-02-18T01:26:34;102755.13;;;9.33;85.59
54556;BME280;57291;37.520;15.106;2023-02-18T01:29:01;102761.50;;;9.27;85.69
54556;BME280;57291;37.520;15.106;2023-02-18T01:31:28;102761.75;;;9.25;85.62
54556;BME280;57291;37.520;15.106;2023-02-18T01:33:57;102749.47;;;9.23;85.80
54556;BME280;57291;37.520;15.106;2023-02-18T01:36:28;102749.00;;;9.26;86.68
54556;BME280;57291;37.520;15.106;2023-02-18T01:38:55;102751.09;;;9.24;86.22
54556;BME280;57291;37.520;15.106;2023-02-18T01:41:22;102748.66;;;9.22;85.99
54556;BME280;57291;37.520;15.106;2023-02-18T01:46:39;102752.28;;;9.16;85.71
54556;BME280;57291;37.520;15.106;2023-02-18T01:49:07;102742.75;;;9.13;85.72
54556;BME280;57291;37.520;15.106;2023-02-18T01:54:32;102751.94;;;9.12;86.06
54556;BME280;57291;37.520;15.106;2023-02-18T01:57:24;102750.78;;;9.08;86.04
54556;BME280;57291;37.520;15.106;2023-02-18T01:59:55;102749.09;;;9.07;86.16
54556;BME280;57291;37.520;15.106;2023-02-18T02:02:26;102755.34;;;9.08;86.20
54556;BME280;57291;37.520;15.106;2023-02-18T02:04:54;102748.41;;;9.12;86.25
54556;BME280;57291;37.520;15.106;2023-02-18T02:07:23;102739.19;;;9.13;86.02
54556;BME280;57291;37.520;15.106;2023-02-18T02:09:55;102747.69;;;9.16;85.92
54556;BME280;57291;37.520;15.106;2023-02-18T02:26:54;102725.03;;;9.23;84.24
54556;BME280;57291;37.520;15.106;2023-02-18T02:36:12;102723.75;;;9.25;84.09
54556;BME280;57291;37.520;15.106;2023-02-18T02:38:28;102724.09;;;9.29;83.93
54556;BME280;57291;37.520;15.106;2023-02-18T02:44:24;102720.09;;;9.31;83.86
54556;BME280;57291;37.520;15.106;2023-02-18T02:47:03;102717.94;;;9.33;83.61
54556;BME280;57291;37.520;15.106;2023-02-18T02:52:40;102720.78;;;9.38;83.05
54556;BME280;57291;37.520;15.106;2023-02-18T02:55:11;102717.00;;;9.39;82.59
54556;BME280;57291;37.520;15.106;2023-02-18T02:57:44;102724.66;;;9.43;82.39
54556;BME280;57291;37.520;15.106;2023-02-18T03:00:20;102712.84;;;9.49;81.69
54556;BME280;57291;37.520;15.106;2023-02-18T03:08:18;102716.00;;;9.57;81.13
54556;BME280;57291;37.520;15.106;2023-02-18T03:16:38;102724.06;;;9.52;80.72
54556;BME280;57291;37.520;15.106;2023-02-18T03:19:21;102712.72;;;9.55;81.01
54556;BME280;57291;37.520;15.106;2023-02-18T03:22:04;102719.78;;;9.56;80.96
54556;BME280;57291;37.520;15.106;2023-02-18T03:24:38;102713.88;;;9.59;81.39
54556;BME280;57291;37.520;15.106;2023-02-18T03:27:17;102711.50;;;9.63;80.96
54556;BME280;57291;37.520;15.106;2023-02-18T03:29:49;102718.03;;;9.62;80.69
54556;BME280;57291;37.520;15.106;2023-02-18T03:32:20;102710.09;;;9.60;80.37
54556;BME280;57291;37.520;15.106;2023-02-18T03:34:52;102707.03;;;9.57;80.01
54556;BME280;57291;37.520;15.106;2023-02-18T03:37:22;102703.63;;;9.50;79.78
54556;BME280;57291;37.520;15.106;2023-02-18T03:39:53;102706.00;;;9.46;79.83
54556;BME280;57291;37.520;15.106;2023-02-18T03:42:28;102713.56;;;9.44;79.80
54556;BME280;57291;37.520;15.106;2023-02-18T03:44:56;102712.38;;;9.40;80.08
54556;BME280;57291;37.520;15.106;2023-02-18T03:47:23;102714.53;;;9.38;79.96
54556;BME280;57291;37.520;15.106;2023-02-18T03:49:51;102712.78;;;9.32;79.81
54556;BME280;57291;37.520;15.106;2023-02-18T03:52:18;102717.13;;;9.21;80.05
54556;BME280;57291;37.520;15.106;2023-02-18T03:54:45;102717.50;;;9.13;80.28
54556;BME280;57291;37.520;15.106;2023-02-18T03:57:12;102723.88;;;9.07;80.74
54556;BME280;57291;37.520;15.106;2023-02-18T03:59:39;102715.13;;;9.05;81.27
54556;BME280;57291;37.520;15.106;2023-02-18T04:02:07;102710.91;;;9.09;81.24
54556;BME280;57291;37.520;15.106;2023-02-18T04:04:34;102719.41;;;9.12;81.49
54556;BME280;57291;37.520;15.106;2023-02-18T04:07:01;102720.81;;;9.15;81.42
54556;BME280;57291;37.520;15.106;2023-02-18T04:09:28;102713.72;;;9.14;81.30
54556;BME280;57291;37.520;15.106;2023-02-18T04:11:55;102717.75;;;9.11;81.56
54556;BME280;57291;37.520;15.106;2023-02-18T04:14:22;102723.66;;;9.08;81.32
54556;BME280;57291;37.520;15.106;2023-02-18T04:16:50;102724.94;;;9.06;81.36
54556;BME280;57291;37.520;15.106;2023-02-18T04:19:17;102727.06;;;9.04;81.53
54556;BME280;57291;37.520;15.106;2023-02-18T04:21:44;102728.34;;;9.01;81.65
54556;BME280;57291;37.520;15.106;2023-02-18T04:24:11;102729.53;;;9.05;81.95
54556;BME280;57291;37.520;15.106;2023-02-18T04:26:38;102731.19;;;9.06;81.95
54556;BME280;57291;37.520;15.106;2023-02-18T04:29:05;102734.59;;;9.13;81.83
54556;BME280;57291;37.520;15.106;2023-02-18T04:31:32;102741.31;;;9.23;81.71
54556;BME280;57291;37.520;15.106;2023-02-18T04:34:00;102736.59;;;9.30;81.55
54556;BME280;57291;37.520;15.106;2023-02-18T04:36:27;102738.97;;;9.38;81.32
54556;BME280;57291;37.520;15.106;2023-02-18T04:38:54;102750.50;;;9.45;81.08
54556;BME280;57291;37.520;15.106;2023-02-18T04:41:21;102751.69;;;9.49;80.45
54556;BME280;57291;37.520;15.106;2023-02-18T04:43:48;102753.66;;;9.54;80.08
54556;BME280;57291;37.520;15.106;2023-02-18T04:46:15;102751.56;;;9.56;79.34
54556;BME280;57291;37.520;15.106;2023-02-18T04:48:43;102756.25;;;9.60;79.36
54556;BME280;57291;37.520;15.106;2023-02-18T04:51:10;102746.00;;;9.62;78.87
54556;BME280;57291;37.520;15.106;2023-02-18T04:53:37;102744.69;;;9.65;78.42
54556;BME280;57291;37.520;15.106;2023-02-18T04:56:05;102752.59;;;9.67;78.40
54556;BME280;57291;37.520;15.106;2023-02-18T04:58:32;102755.91;;;9.69;78.47
54556;BME280;57291;37.520;15.106;2023-02-18T05:01:00;102759.44;;;9.69;78.42
54556;BME280;57291;37.520;15.106;2023-02-18T05:03:28;102749.66;;;9.68;78.11
54556;BME280;57291;37.520;15.106;2023-02-18T05:05:56;102761.81;;;9.66;77.93
54556;BME280;57291;37.520;15.106;2023-02-18T05:08:23;102756.84;;;9.62;77.99
54556;BME280;57291;37.520;15.106;2023-02-18T05:10:50;102754.59;;;9.59;77.95
54556;BME280;57291;37.520;15.106;2023-02-18T05:13:17;102760.75;;;9.55;77.98
54556;BME280;57291;37.520;15.106;2023-02-18T05:15:44;102754.13;;;9.51;78.06
54556;BME280;57291;37.520;15.106;2023-02-18T05:18:11;102756.50;;;9.47;77.97
54556;BME280;57291;37.520;15.106;2023-02-18T05:20:38;102755.34;;;9.43;78.20
54556;BME280;57291;37.520;15.106;2023-02-18T05:23:05;102763.38;;;9.38;78.11
54556;BME280;57291;37.520;15.106;2023-02-18T05:25:33;102765.25;;;9.37;78.36
54556;BME280;57291;37.520;15.106;2023-02-18T05:28:00;102767.63;;;9.34;78.42
54556;BME280;57291;37.520;15.106;2023-02-18T05:30:27;102777.91;;;9.32;78.64
54556;BME280;57291;37.520;15.106;2023-02-18T05:32:54;102770.81;;;9.31;78.84
54556;BME280;57291;37.520;15.106;2023-02-18T05:35:21;102775.19;;;9.32;78.71
54556;BME280;57291;37.520;15.106;2023-02-18T05:37:48;102771.06;;;9.29;78.90
54556;BME280;57291;37.520;15.106;2023-02-18T05:40:15;102767.25;;;9.30;78.79
54556;BME280;57291;37.520;15.106;2023-02-18T05:42:42;102780.00;;;9.30;78.88
54556;BME280;57291;37.520;15.106;2023-02-18T05:45:09;102774.13;;;9.33;78.96
54556;BME280;57291;37.520;15.106;2023-02-18T05:47:36;102784.50;;;9.36;79.18
54556;BME280;57291;37.520;15.106;2023-02-18T05:50:04;102780.84;;;9.42;79.51
54556;BME280;57291;37.520;15.106;2023-02-18T05:52:32;102785.75;;;9.57;79.68
54556;BME280;57291;37.520;15.106;2023-02-18T05:54:59;102786.44;;;9.76;79.95
54556;BME280;57291;37.520;15.106;2023-02-18T05:57:26;102786.31;;;9.94;79.80
54556;BME280;57291;37.520;15.106;2023-02-18T05:59:53;102784.22;;;10.13;79.67
54556;BME280;57291;37.520;15.106;2023-02-18T06:02:20;102786.38;;;10.40;79.70
54556;BME280;57291;37.520;15.106;2023-02-18T06:04:47;102789.88;;;10.69;78.62
54556;BME280;57291;37.520;15.106;2023-02-18T06:07:15;102792.47;;;11.09;78.77
54556;BME280;57291;37.520;15.106;2023-02-18T06:09:42;102790.81;;;11.64;78.57
54556;BME280;57291;37.520;15.106;2023-02-18T06:12:09;102793.28;;;12.31;77.86
54556;BME280;57291;37.520;15.106;2023-02-18T06:14:36;102793.75;;;12.82;74.00
54556;BME280;57291;37.520;15.106;2023-02-18T06:17:08;102800.63;;;13.22;70.13
54556;BME280;57291;37.520;15.106;2023-02-18T06:19:35;102808.06;;;13.69;68.96
54556;BME280;57291;37.520;15.106;2023-02-18T06:22:02;102811.81;;;14.31;68.32
54556;BME280;57291;37.520;15.106;2023-02-18T06:24:30;102812.22;;;14.75;65.92
54556;BME280;57291;37.520;15.106;2023-02-18T06:26:57;102812.19;;;15.06;62.31
54556;BME280;57291;37.520;15.106;2023-02-18T06:29:24;102815.19;;;15.40;61.23
54556;BME280;57291;37.520;15.106;2023-02-18T06:31:51;102807.97;;;15.80;60.27
54556;BME280;57291;37.520;15.106;2023-02-18T06:34:18;102807.50;;;16.23;59.66
54556;BME280;57291;37.520;15.106;2023-02-18T06:36:45;102819.78;;;16.75;58.10
54556;BME280;57291;37.520;15.106;2023-02-18T06:39:13;102826.25;;;17.23;55.55
54556;BME280;57291;37.520;15.106;2023-02-18T06:41:40;102824.56;;;17.27;53.11
54556;BME280;57291;37.520;15.106;2023-02-18T06:44:07;102823.28;;;17.20;52.82
54556;BME280;57291;37.520;15.106;2023-02-18T06:46:34;102821.91;;;17.17;51.63
54556;BME280;57291;37.520;15.106;2023-02-18T06:49:02;102828.81;;;16.80;51.46
54556;BME280;57291;37.520;15.106;2023-02-18T06:51:29;102832.44;;;16.26;51.57
54556;BME280;57291;37.520;15.106;2023-02-18T06:53:56;102828.97;;;16.05;53.01
54556;BME280;57291;37.520;15.106;2023-02-18T06:56:23;102835.06;;;15.92;53.09
54556;BME280;57291;37.520;15.106;2023-02-18T06:58:50;102835.25;;;16.11;53.10
54556;BME280;57291;37.520;15.106;2023-02-18T07:01:17;102832.00;;;16.58;51.64
54556;BME280;57291;37.520;15.106;2023-02-18T07:03:44;102837.13;;;17.04;49.99
54556;BME280;57291;37.520;15.106;2023-02-18T07:06:15;102831.91;;;17.08;48.99
54556;BME280;57291;37.520;15.106;2023-02-18T07:08:42;102836.06;;;17.00;48.50
54556;BME280;57291;37.520;15.106;2023-02-18T07:11:09;102848.09;;;16.70;48.51
54556;BME280;57291;37.520;15.106;2023-02-18T07:13:39;102832.50;;;16.16;49.64
54556;BME280;57291;37.520;15.106;2023-02-18T07:16:06;102838.38;;;15.84;50.82
54556;BME280;57291;37.520;15.106;2023-02-18T07:18:34;102842.81;;;15.59;51.01
54556;BME280;57291;37.520;15.106;2023-02-18T07:21:01;102841.47;;;15.41;52.92
54556;BME280;57291;37.520;15.106;2023-02-18T07:23:28;102842.81;;;15.75;53.02
54556;BME280;57291;37.520;15.106;2023-02-18T07:26:07;102838.72;;;16.32;52.67
54556;BME280;57291;37.520;15.106;2023-02-18T07:28:35;102835.09;;;16.86;51.68
54556;BME280;57291;37.520;15.106;2023-02-18T07:31:03;102840.81;;;17.24;49.67
54556;BME280;57291;37.520;15.106;2023-02-18T07:33:30;102839.25;;;17.18;48.88
54556;BME280;57291;37.520;15.106;2023-02-18T07:35:59;102838.41;;;16.88;48.78
54556;BME280;57291;37.520;15.106;2023-02-18T07:38:27;102849.03;;;16.50;50.19
54556;BME280;57291;37.520;15.106;2023-02-18T07:40:55;102844.75;;;16.34;50.35
54556;BME280;57291;37.520;15.106;2023-02-18T07:43:22;102840.84;;;15.90;52.80
54556;BME280;57291;37.520;15.106;2023-02-18T07:45:50;102843.41;;;15.36;53.64
54556;BME280;57291;37.520;15.106;2023-02-18T07:48:17;102848.34;;;14.72;56.59
54556;BME280;57291;37.520;15.106;2023-02-18T07:50:45;102857.25;;;14.37;57.98
54556;BME280;57291;37.520;15.106;2023-02-18T07:53:15;102853.44;;;14.38;57.60
54556;BME280;57291;37.520;15.106;2023-02-18T07:55:42;102844.94;;;14.40;57.18
54556;BME280;57291;37.520;15.106;2023-02-18T07:58:22;102856.41;;;14.26;58.58
54556;BME280;57291;37.520;15.106;2023-02-18T08:00:50;102851.09;;;13.99;57.51
54556;BME280;57291;37.520;15.106;2023-02-18T08:03:19;102848.03;;;13.91;58.76
54556;BME280;57291;37.520;15.106;2023-02-18T08:05:48;102847.78;;;13.92;58.82
54556;BME280;57291;37.520;15.106;2023-02-18T08:08:24;102843.91;;;13.88;58.58
54556;BME280;57291;37.520;15.106;2023-02-18T08:10:53;102850.00;;;13.95;57.53
54556;BME280;57291;37.520;15.106;2023-02-18T08:13:21;102856.53;;;13.89;57.83
54556;BME280;57291;37.520;15.106;2023-02-18T08:15:48;102849.38;;;13.88;58.34
54556;BME280;57291;37.520;15.106;2023-02-18T08:18:18;102845.59;;;13.94;57.88
54556;BME280;57291;37.520;15.106;2023-02-18T08:20:46;102852.50;;;14.07;58.75
54556;BME280;57291;37.520;15.106;2023-02-18T08:23:14;102845.56;;;13.84;58.30
54556;BME280;57291;37.520;15.106;2023-02-18T08:25:46;102854.31;;;13.86;59.11
54556;BME280;57291;37.520;15.106;2023-02-18T08:28:17;102850.25;;;13.89;59.64
54556;BME280;57291;37.520;15.106;2023-02-18T08:30:49;102847.22;;;13.90;58.73
54556;BME280;57291;37.520;15.106;2023-02-18T08:33:17;102844.72;;;13.83;58.48
54556;BME280;57291;37.520;15.106;2023-02-18T08:35:45;102850.16;;;13.78;57.96
54556;BME280;57291;37.520;15.106;2023-02-18T08:38:12;102845.72;;;13.67;56.75
54556;BME280;57291;37.520;15.106;2023-02-18T08:40:39;102844.34;;;13.65;58.24
54556;BME280;57291;37.520;15.106;2023-02-18T08:43:07;102845.22;;;13.75;56.74
54556;BME280;57291;37.520;15.106;2023-02-18T08:45:36;102843.63;;;13.84;58.15
54556;BME280;57291;37.520;15.106;2023-02-18T08:48:06;102840.91;;;13.79;55.42
54556;BME280;57291;37.520;15.106;2023-02-18T08:50:46;102836.25;;;13.85;55.62
54556;BME280;57291;37.520;15.106;2023-02-18T08:53:14;102842.56;;;13.86;55.58
54556;BME280;57291;37.520;15.106;2023-02-18T08:55:41;102836.50;;;13.78;55.90
54556;BME280;57291;37.520;15.106;2023-02-18T08:58:08;102845.81;;;13.82;55.97
54556;BME280;57291;37.520;15.106;2023-02-18T09:00:36;102844.72;;;13.83;55.10
54556;BME280;57291;37.520;15.106;2023-02-18T09:03:03;102836.47;;;13.73;55.47
54556;BME280;57291;37.520;15.106;2023-02-18T09:05:30;102840.41;;;13.93;55.52
54556;BME280;57291;37.520;15.106;2023-02-18T09:07:57;102842.66;;;14.11;56.17
54556;BME280;57291;37.520;15.106;2023-02-18T09:10:25;102844.06;;;14.19;56.16
54556;BME280;57291;37.520;15.106;2023-02-18T09:12:52;102837.47;;;14.10;55.75
54556;BME280;57291;37.520;15.106;2023-02-18T09:15:19;102836.66;;;14.14;55.99
54556;BME280;57291;37.520;15.106;2023-02-18T09:17:46;102836.75;;;14.35;55.85
54556;BME280;57291;37.520;15.106;2023-02-18T09:20:13;102843.00;;;14.30;54.48
54556;BME280;57291;37.520;15.106;2023-02-18T09:22:41;102838.38;;;14.36;55.14
54556;BME280;57291;37.520;15.106;2023-02-18T09:25:08;102846.56;;;14.25;56.28
54556;BME280;57291;37.520;15.106;2023-02-18T09:27:35;102845.38;;;14.11;55.46
54556;BME280;57291;37.520;15.106;2023-02-18T09:30:03;102844.03;;;14.14;56.32
54556;BME280;57291;37.520;15.106;2023-02-18T09:32:30;102839.13;;;14.16;55.35
54556;BME280;57291;37.520;15.106;2023-02-18T09:35:02;102838.31;;;14.20;55.29
54556;BME280;57291;37.520;15.106;2023-02-18T09:37:30;102843.53;;;14.22;54.81
54556;BME280;57291;37.520;15.106;2023-02-18T09:39:57;102837.22;;;14.16;55.20
54556;BME280;57291;37.520;15.106;2023-02-18T09:42:30;102841.06;;;14.20;56.84
54556;BME280;57291;37.520;15.106;2023-02-18T09:45:05;102831.22;;;14.24;55.34
54556;BME280;57291;37.520;15.106;2023-02-18T09:47:40;102837.78;;;14.23;54.97
54556;BME280;57291;37.520;15.106;2023-02-18T09:50:25;102839.47;;;14.35;55.61
54556;BME280;57291;37.520;15.106;2023-02-18T09:52:53;102839.41;;;14.19;56.05
54556;BME280;57291;37.520;15.106;2023-02-18T09:58:06;102837.31;;;14.42;54.64
54556;BME280;57291;37.520;15.106;2023-02-18T10:00:37;102835.63;;;14.41;54.92
54556;BME280;57291;37.520;15.106;2023-02-18T10:03:20;102838.38;;;14.41;55.05
54556;BME280;57291;37.520;15.106;2023-02-18T10:08:29;102828.28;;;14.46;55.07
54556;BME280;57291;37.520;15.106;2023-02-18T10:10:58;102828.03;;;14.48;55.79
54556;BME280;57291;37.520;15.106;2023-02-18T10:13:29;102829.69;;;14.59;54.95
54556;BME280;57291;37.520;15.106;2023-02-18T10:15:56;102823.09;;;14.50;54.85
54556;BME280;57291;37.520;15.106;2023-02-18T10:18:32;102826.09;;;14.48;54.69
54556;BME280;57291;37.520;15.106;2023-02-18T10:21:23;102819.59;;;14.54;54.68
54556;BME280;57291;37.520;15.106;2023-02-18T10:23:53;102815.19;;;14.64;55.01
54556;BME280;57291;37.520;15.106;2023-02-18T10:26:23;102813.84;;;14.71;54.42
54556;BME280;57291;37.520;15.106;2023-02-18T10:28:51;102807.81;;;14.69;55.28
54556;BME280;57291;37.520;15.106;2023-02-18T10:31:30;102800.72;;;14.78;55.04
54556;BME280;57291;37.520;15.106;2023-02-18T10:36:56;102797.97;;;14.84;55.01
54556;BME280;57291;37.520;15.106;2023-02-18T10:42:25;102791.97;;;14.82;54.78
54556;BME280;57291;37.520;15.106;2023-02-18T10:45:27;102788.69;;;14.74;55.19
54556;BME280;57291;37.520;15.106;2023-02-18T10:50:54;102785.38;;;14.52;55.28
54556;BME280;57291;37.520;15.106;2023-02-18T10:53:32;102781.19;;;14.34;57.06
54556;BME280;57291;37.520;15.106;2023-02-18T10:56:00;102773.06;;;14.54;55.39
54556;BME280;57291;37.520;15.106;2023-02-18T10:58:36;102768.66;;;14.64;55.64
54556;BME280;57291;37.520;15.106;2023-02-18T11:01:20;102772.25;;;14.69;56.42
54556;BME280;57291;37.520;15.106;2023-02-18T11:03:50;102768.69;;;14.84;55.34
54556;BME280;57291;37.520;15.106;2023-02-18T11:06:29;102761.56;;;14.83;55.69
54556;BME280;57291;37.520;15.106;2023-02-18T11:08:59;102767.31;;;14.82;55.80
54556;BME280;57291;37.520;15.106;2023-02-18T11:11:38;102765.66;;;14.70;55.56
54556;BME280;57291;37.520;15.106;2023-02-18T11:14:12;102758.84;;;14.68;55.79
54556;BME280;57291;37.520;15.106;2023-02-18T11:16:45;102757.41;;;14.50;57.43
54556;BME280;57291;37.520;15.106;2023-02-18T11:19:34;102754.94;;;14.43;56.25
54556;BME280;57291;37.520;15.106;2023-02-18T11:24:55;102747.28;;;14.35;57.92
54556;BME280;57291;37.520;15.106;2023-02-18T11:27:44;102741.31;;;14.53;56.90
54556;BME280;57291;37.520;15.106;2023-02-18T11:32:53;102735.56;;;14.65;57.28
54556;BME280;57291;37.520;15.106;2023-02-18T11:35:25;102722.41;;;14.47;58.23
54556;BME280;57291;37.520;15.106;2023-02-18T11:37:58;102716.63;;;14.18;58.21
54556;BME280;57291;37.520;15.106;2023-02-18T11:40:33;102720.19;;;14.23;57.63
54556;BME280;57291;37.520;15.106;2023-02-18T11:43:12;102707.91;;;14.46;56.26
54556;BME280;57291;37.520;15.106;2023-02-18T11:45:41;102709.03;;;14.56;57.09
54556;BME280;57291;37.520;15.106;2023-02-18T11:48:22;102714.78;;;14.59;57.32
54556;BME280;57291;37.520;15.106;2023-02-18T11:50:51;102715.06;;;14.68;58.15
54556;BME280;57291;37.520;15.106;2023-02-18T11:53:30;102704.06;;;14.47;55.70
54556;BME280;57291;37.520;15.106;2023-02-18T11:56:01;102700.00;;;14.65;56.56
54556;BME280;57291;37.520;15.106;2023-02-18T11:58:37;102693.97;;;14.53;57.80
54556;BME280;57291;37.520;15.106;2023-02-18T12:01:11;102695.06;;;14.31;58.54
54556;BME280;57291;37.520;15.106;2023-02-18T12:06:41;102686.28;;;14.50;57.89
54556;BME280;57291;37.520;15.106;2023-02-18T12:11:47;102684.69;;;14.64;57.45
54556;BME280;57291;37.520;15.106;2023-02-18T12:14:20;102673.19;;;14.52;57.83
54556;BME280;57291;37.520;15.106;2023-02-18T12:23:03;102671.28;;;14.68;58.61
54556;BME280;57291;37.520;15.106;2023-02-18T12:31:04;102654.59;;;14.64;58.10
54556;BME280;57291;37.520;15.106;2023-02-18T12:33:55;102650.16;;;14.38;58.49
54556;BME280;57291;37.520;15.106;2023-02-18T12:42:22;102639.22;;;14.27;59.50
54556;BME280;57291;37.520;15.106;2023-02-18T12:48:11;102641.97;;;14.17;59.58
54556;BME280;57291;37.520;15.106;2023-02-18T12:50:55;102636.75;;;14.31;59.35
54556;BME280;57291;37.520;15.106;2023-02-18T13:13:32;102612.34;;;15.01;54.08
54556;BME280;57291;37.520;15.106;2023-02-18T13:16:15;102611.03;;;14.73;54.22
54556;BME280;57291;37.520;15.106;2023-02-18T13:21:25;102604.75;;;14.72;55.55
54556;BME280;57291;37.520;15.106;2023-02-18T13:24:01;102612.38;;;14.86;55.46
54556;BME280;57291;37.520;15.106;2023-02-18T13:26:32;102605.03;;;14.71;55.46
54556;BME280;57291;37.520;15.106;2023-02-18T13:29:31;102600.91;;;14.78;56.13
54556;BME280;57291;37.520;15.106;2023-02-18T13:32:22;102598.44;;;14.77;55.46
54556;BME280;57291;37.520;15.106;2023-02-18T13:35:34;102596.28;;;14.59;55.31
54556;BME280;57291;37.520;15.106;2023-02-18T13:40:30;102594.88;;;14.76;57.16
54556;BME280;57291;37.520;15.106;2023-02-18T13:43:19;102597.03;;;14.90;55.99
54556;BME280;57291;37.520;15.106;2023-02-18T13:46:15;102592.19;;;14.56;56.69
54556;BME280;57291;37.520;15.106;2023-02-18T13:48:51;102584.81;;;14.51;57.98
54556;BME280;57291;37.520;15.106;2023-02-18T13:52:05;102588.34;;;14.47;57.77
54556;BME280;57291;37.520;15.106;2023-02-18T13:54:38;102592.47;;;14.65;58.76
54556;BME280;57291;37.520;15.106;2023-02-18T13:57:20;102588.88;;;14.74;57.72
54556;BME280;57291;37.520;15.106;2023-02-18T14:00:02;102582.03;;;14.67;57.05
54556;BME280;57291;37.520;15.106;2023-02-18T14:02:35;102584.25;;;14.60;58.22
54556;BME280;57291;37.520;15.106;2023-02-18T14:05:20;102588.31;;;14.67;57.73
54556;BME280;57291;37.520;15.106;2023-02-18T14:08:05;102594.41;;;14.28;57.63
54556;BME280;57291;37.520;15.106;2023-02-18T14:10:35;102593.56;;;14.23;59.21
54556;BME280;57291;37.520;15.106;2023-02-18T14:13:19;102584.00;;;14.10;58.58
54556;BME280;57291;37.520;15.106;2023-02-18T14:15:52;102584.03;;;14.05;58.99
54556;BME280;57291;37.520;15.106;2023-02-18T14:19:22;102570.59;;;13.93;59.76
54556;BME280;57291;37.520;15.106;2023-02-18T14:23:40;102575.25;;;13.98;60.36
54556;BME280;57291;37.520;15.106;2023-02-18T14:33:41;102582.09;;;14.05;59.88
54556;BME280;57291;37.520;15.106;2023-02-18T14:36:24;102590.28;;;13.90;60.91
54556;BME280;57291;37.520;15.106;2023-02-18T14:50:11;102585.63;;;14.11;61.80
54556;BME280;57291;37.520;15.106;2023-02-18T14:53:02;102582.09;;;13.95;61.06
54556;BME280;57291;37.520;15.106;2023-02-18T14:55:36;102578.53;;;13.90;61.47
54556;BME280;57291;37.520;15.106;2023-02-18T14:58:27;102575.78;;;13.84;62.80
54556;BME280;57291;37.520;15.106;2023-02-18T15:00:55;102577.97;;;13.98;62.55
54556;BME280;57291;37.520;15.106;2023-02-18T15:03:25;102578.00;;;14.13;61.80
54556;BME280;57291;37.520;15.106;2023-02-18T15:05:53;102578.00;;;14.13;61.56
54556;BME280;57291;37.520;15.106;2023-02-18T15:08:22;102585.91;;;13.94;61.78
54556;BME280;57291;37.520;15.106;2023-02-18T15:11:01;102577.97;;;13.98;62.74
54556;BME280;57291;37.520;15.106;2023-02-18T15:16:01;102583.44;;;13.88;61.91
54556;BME280;57291;37.520;15.106;2023-02-18T15:18:33;102575.78;;;13.74;62.17
54556;BME280;57291;37.520;15.106;2023-02-18T15:21:05;102585.09;;;13.83;62.85